sensor_id;sensor_type;location;lat;lon;timestamp;P1;P2;P0
76421;PMS5003;65254;52.354;13.614;2023-04-16T00:00:00;4;4;
76421;PMS5003;65254;52.354;13.614;2023-04-16T00:04:01;5;5;
76421;PMS5003;65254;52.354;13.614;2023-04-16T00:08:01;5;5;
76421;PMS5003;65254;52.354;13.614;2023-04-16T00:12:00;4;4;
76421;PMS5003;65254;52.354;13.614;2023-04-16T00:16:00;5;5;
76421;PMS5003;65254;52.354;13.614;2023-04-16T00:20:00;5;5;
76421;PMS5003;65254;52.354;13.614;2023-04-16T00:24:00;5;5;
76421;PMS5003;65254;52.354;13.614;2023-04-16T00:28:01;5;5;
76421;PMS5003;65254;52.354;13.614;2023-04-16T00:32:00;5;5;
76421;PMS5003;65254;52.354;13.614;2023-04-16T00:36:00;4;4;
76421;PMS5003;65254;52.354;13.614;2023-04-16T00:40:00;5;5;
76421;PMS5003;65254;52.354;13.614;2023-04-16T00:44:00;5;5;
76421;PMS5003;65254;52.354;13.614;2023-04-16T00:48:01;5;5;
76421;PMS5003;65254;52.354;13.614;2023-04-16T00:52:01;5;5;
76421;PMS5003;65254;52.354;13.614;2023-04-16T00:56:01;5;5;
76421;PMS5003;65254;52.354;13.614;2023-04-16T01:00:01;5;5;
76421;PMS5003;65254;52.354;13.614;2023-04-16T01:04:00;5;5;
76421;PMS5003;65254;52.354;13.614;2023-04-16T01:08:00;5;5;
76421;PMS5003;65254;52.354;13.614;2023-04-16T01:12:00;5;5;
76421;PMS5003;65254;52.354;13.614;2023-04-16T01:16:00;6;6;
76421;PMS5003;65254;52.354;13.614;2023-04-16T01:20:00;6;6;
76421;PMS5003;65254;52.354;13.614;2023-04-16T01:24:01;5;5;
76421;PMS5003;65254;52.354;13.614;2023-04-16T01:28:00;7;7;
76421;PMS5003;65254;52.354;13.614;2023-04-16T01:32:00;9;8;
76421;PMS5003;65254;52.354;13.614;2023-04-16T01:36:00;11;10;
76421;PMS5003;65254;52.354;13.614;2023-04-16T01:40:00;11;10;
76421;PMS5003;65254;52.354;13.614;2023-04-16T01:44:00;10;9;
76421;PMS5003;65254;52.354;13.614;2023-04-16T01:48:02;11;10;
76421;PMS5003;65254;52.354;13.614;2023-04-16T01:52:00;12;11;
76421;PMS5003;65254;52.354;13.614;2023-04-16T01:56:00;11;10;
76421;PMS5003;65254;52.354;13.614;2023-04-16T02:00:00;13;12;
76421;PMS5003;65254;52.354;13.614;2023-04-16T02:04:01;13;12;
76421;PMS5003;65254;52.354;13.614;2023-04-16T02:08:00;12;11;
76421;PMS5003;65254;52.354;13.614;2023-04-16T02:12:00;13;12;
76421;PMS5003;65254;52.354;13.614;2023-04-16T02:16:00;13;12;
76421;PMS5003;65254;52.354;13.614;2023-04-16T02:20:00;12;11;
76421;PMS5003;65254;52.354;13.614;2023-04-16T02:24:00;13;12;
76421;PMS5003;65254;52.354;13.614;2023-04-16T02:28:00;14;13;
76421;PMS5003;65254;52.354;13.614;2023-04-16T02:32:00;13;12;
76421;PMS5003;65254;52.354;13.614;2023-04-16T02:36:01;13;12;
76421;PMS5003;65254;52.354;13.614;2023-04-16T02:40:00;13;12;
76421;PMS5003;65254;52.354;13.614;2023-04-16T02:44:00;13;12;
76421;PMS5003;65254;52.354;13.614;2023-04-16T02:48:00;13;12;
76421;PMS5003;65254;52.354;13.614;2023-04-16T02:52:00;14;13;
76421;PMS5003;65254;52.354;13.614;2023-04-16T02:56:00;13;12;
76421;PMS5003;65254;52.354;13.614;2023-04-16T03:00:00;13;12;
76421;PMS5003;65254;52.354;13.614;2023-04-16T03:04:00;13;12;
76421;PMS5003;65254;52.354;13.614;2023-04-16T03:08:00;14;13;
76421;PMS5003;65254;52.354;13.614;2023-04-16T03:12:00;13;12;
76421;PMS5003;65254;52.354;13.614;2023-04-16T03:16:00;14;13;
76421;PMS5003;65254;52.354;13.614;2023-04-16T03:20:00;13;12;
76421;PMS5003;65254;52.354;13.614;2023-04-16T03:24:00;13;12;
76421;PMS5003;65254;52.354;13.614;2023-04-16T03:28:00;13;12;
76421;PMS5003;65254;52.354;13.614;2023-04-16T03:32:00;14;13;
76421;PMS5003;65254;52.354;13.614;2023-04-16T03:36:00;14;13;
76421;PMS5003;65254;52.354;13.614;2023-04-16T03:40:01;16;14;
76421;PMS5003;65254;52.354;13.614;2023-04-16T03:44:00;15;14;
76421;PMS5003;65254;52.354;13.614;2023-04-16T03:48:00;14;13;
76421;PMS5003;65254;52.354;13.614;2023-04-16T03:52:00;14;13;
76421;PMS5003;65254;52.354;13.614;2023-04-16T03:56:00;15;14;
76421;PMS5003;65254;52.354;13.614;2023-04-16T04:00:00;14;13;
76421;PMS5003;65254;52.354;13.614;2023-04-16T04:04:01;15;14;
76421;PMS5003;65254;52.354;13.614;2023-04-16T04:08:00;16;14;
76421;PMS5003;65254;52.354;13.614;2023-04-16T04:12:00;15;14;
76421;PMS5003;65254;52.354;13.614;2023-04-16T04:16:00;17;15;
76421;PMS5003;65254;52.354;13.614;2023-04-16T04:20:02;17;15;
76421;PMS5003;65254;52.354;13.614;2023-04-16T04:24:00;17;15;
76421;PMS5003;65254;52.354;13.614;2023-04-16T04:28:00;18;16;
76421;PMS5003;65254;52.354;13.614;2023-04-16T04:32:01;17;15;
76421;PMS5003;65254;52.354;13.614;2023-04-16T04:36:00;18;16;
76421;PMS5003;65254;52.354;13.614;2023-04-16T04:40:00;18;16;
76421;PMS5003;65254;52.354;13.614;2023-04-16T04:44:00;18;16;
76421;PMS5003;65254;52.354;13.614;2023-04-16T04:48:00;19;17;
76421;PMS5003;65254;52.354;13.614;2023-04-16T04:52:01;19;17;
76421;PMS5003;65254;52.354;13.614;2023-04-16T04:56:10;19;17;
76421;PMS5003;65254;52.354;13.614;2023-04-16T05:00:00;19;17;
76421;PMS5003;65254;52.354;13.614;2023-04-16T05:04:01;19;17;
76421;PMS5003;65254;52.354;13.614;2023-04-16T05:08:00;19;17;
76421;PMS5003;65254;52.354;13.614;2023-04-16T05:12:00;20;18;
76421;PMS5003;65254;52.354;13.614;2023-04-16T05:16:00;20;18;
76421;PMS5003;65254;52.354;13.614;2023-04-16T05:20:00;20;18;
76421;PMS5003;65254;52.354;13.614;2023-04-16T05:24:01;19;17;
76421;PMS5003;65254;52.354;13.614;2023-04-16T05:28:00;20;18;
76421;PMS5003;65254;52.354;13.614;2023-04-16T05:32:01;19;17;
76421;PMS5003;65254;52.354;13.614;2023-04-16T05:36:00;18;16;
76421;PMS5003;65254;52.354;13.614;2023-04-16T05:40:00;18;16;
76421;PMS5003;65254;52.354;13.614;2023-04-16T05:44:00;18;16;
76421;PMS5003;65254;52.354;13.614;2023-04-16T05:48:00;17;15;
76421;PMS5003;65254;52.354;13.614;2023-04-16T05:52:00;18;16;
76421;PMS5003;65254;52.354;13.614;2023-04-16T05:56:00;17;15;
76421;PMS5003;65254;52.354;13.614;2023-04-16T06:00:00;17;15;
76421;PMS5003;65254;52.354;13.614;2023-04-16T06:04:00;18;16;
76421;PMS5003;65254;52.354;13.614;2023-04-16T06:08:00;18;16;
76421;PMS5003;65254;52.354;13.614;2023-04-16T06:12:00;19;17;
76421;PMS5003;65254;52.354;13.614;2023-04-16T06:16:00;18;16;
76421;PMS5003;65254;52.354;13.614;2023-04-16T06:20:00;18;16;
76421;PMS5003;65254;52.354;13.614;2023-04-16T06:36:00;20;18;
76421;PMS5003;65254;52.354;13.614;2023-04-16T06:40:00;21;19;
76421;PMS5003;65254;52.354;13.614;2023-04-16T06:44:00;20;18;
76421;PMS5003;65254;52.354;13.614;2023-04-16T06:48:00;20;18;
76421;PMS5003;65254;52.354;13.614;2023-04-16T06:52:00;22;20;
76421;PMS5003;65254;52.354;13.614;2023-04-16T07:00:01;19;17;
76421;PMS5003;65254;52.354;13.614;2023-04-16T07:04:01;21;19;
76421;PMS5003;65254;52.354;13.614;2023-04-16T07:08:00;20;18;
76421;PMS5003;65254;52.354;13.614;2023-04-16T07:12:00;21;19;
76421;PMS5003;65254;52.354;13.614;2023-04-16T07:16:00;22;20;
76421;PMS5003;65254;52.354;13.614;2023-04-16T07:20:00;21;19;
76421;PMS5003;65254;52.354;13.614;2023-04-16T07:24:01;19;17;
76421;PMS5003;65254;52.354;13.614;2023-04-16T07:28:01;20;18;
76421;PMS5003;65254;52.354;13.614;2023-04-16T07:32:00;19;17;
76421;PMS5003;65254;52.354;13.614;2023-04-16T07:36:00;19;17;
76421;PMS5003;65254;52.354;13.614;2023-04-16T07:40:00;21;19;
76421;PMS5003;65254;52.354;13.614;2023-04-16T07:44:00;20;18;
76421;PMS5003;65254;52.354;13.614;2023-04-16T07:48:00;20;18;
76421;PMS5003;65254;52.354;13.614;2023-04-16T07:52:00;19;17;
76421;PMS5003;65254;52.354;13.614;2023-04-16T07:56:00;18;16;
76421;PMS5003;65254;52.354;13.614;2023-04-16T08:00:00;17;15;
76421;PMS5003;65254;52.354;13.614;2023-04-16T08:04:02;18;16;
76421;PMS5003;65254;52.354;13.614;2023-04-16T08:08:01;17;15;
76421;PMS5003;65254;52.354;13.614;2023-04-16T08:12:01;17;15;
76421;PMS5003;65254;52.354;13.614;2023-04-16T08:16:00;17;15;
76421;PMS5003;65254;52.354;13.614;2023-04-16T08:20:00;15;14;
76421;PMS5003;65254;52.354;13.614;2023-04-16T08:24:00;17;15;
76421;PMS5003;65254;52.354;13.614;2023-04-16T08:28:00;15;14;
76421;PMS5003;65254;52.354;13.614;2023-04-16T08:32:00;15;14;
76421;PMS5003;65254;52.354;13.614;2023-04-16T08:36:00;14;13;
76421;PMS5003;65254;52.354;13.614;2023-04-16T08:40:00;14;13;
76421;PMS5003;65254;52.354;13.614;2023-04-16T08:44:05;14;13;
76421;PMS5003;65254;52.354;13.614;2023-04-16T08:48:00;13;12;
76421;PMS5003;65254;52.354;13.614;2023-04-16T08:52:04;14;13;
76421;PMS5003;65254;52.354;13.614;2023-04-16T08:56:02;13;12;
76421;PMS5003;65254;52.354;13.614;2023-04-16T09:00:01;13;12;
76421;PMS5003;65254;52.354;13.614;2023-04-16T09:04:01;13;12;
76421;PMS5003;65254;52.354;13.614;2023-04-16T09:08:00;13;12;
76421;PMS5003;65254;52.354;13.614;2023-04-16T09:12:00;13;12;
76421;PMS5003;65254;52.354;13.614;2023-04-16T09:16:01;13;12;
76421;PMS5003;65254;52.354;13.614;2023-04-16T09:20:00;13;12;
76421;PMS5003;65254;52.354;13.614;2023-04-16T09:24:00;13;12;
76421;PMS5003;65254;52.354;13.614;2023-04-16T09:28:00;14;13;
76421;PMS5003;65254;52.354;13.614;2023-04-16T09:32:01;12;11;
76421;PMS5003;65254;52.354;13.614;2023-04-16T09:36:00;12;11;
76421;PMS5003;65254;52.354;13.614;2023-04-16T09:40:02;12;11;
76421;PMS5003;65254;52.354;13.614;2023-04-16T09:44:02;13;12;
76421;PMS5003;65254;52.354;13.614;2023-04-16T09:48:02;12;11;
76421;PMS5003;65254;52.354;13.614;2023-04-16T09:52:00;13;12;
76421;PMS5003;65254;52.354;13.614;2023-04-16T09:56:03;12;11;
76421;PMS5003;65254;52.354;13.614;2023-04-16T10:00:02;12;11;
76421;PMS5003;65254;52.354;13.614;2023-04-16T10:04:00;12;11;
76421;PMS5003;65254;52.354;13.614;2023-04-16T10:08:00;12;11;
76421;PMS5003;65254;52.354;13.614;2023-04-16T10:12:00;11;10;
76421;PMS5003;65254;52.354;13.614;2023-04-16T10:16:01;13;12;
76421;PMS5003;65254;52.354;13.614;2023-04-16T10:20:01;14;13;
76421;PMS5003;65254;52.354;13.614;2023-04-16T10:24:00;12;11;
76421;PMS5003;65254;52.354;13.614;2023-04-16T10:28:01;12;11;
76421;PMS5003;65254;52.354;13.614;2023-04-16T10:32:01;10;9;
76421;PMS5003;65254;52.354;13.614;2023-04-16T10:36:10;10;9;
76421;PMS5003;65254;52.354;13.614;2023-04-16T10:40:00;10;9;
76421;PMS5003;65254;52.354;13.614;2023-04-16T10:44:05;10;9;
76421;PMS5003;65254;52.354;13.614;2023-04-16T10:48:03;10;9;
76421;PMS5003;65254;52.354;13.614;2023-04-16T10:52:06;11;10;
76421;PMS5003;65254;52.354;13.614;2023-04-16T10:56:10;10;9;
76421;PMS5003;65254;52.354;13.614;2023-04-16T11:00:00;9;8;
76421;PMS5003;65254;52.354;13.614;2023-04-16T11:08:12;6;6;
76421;PMS5003;65254;52.354;13.614;2023-04-16T11:12:01;6;6;
76421;PMS5003;65254;52.354;13.614;2023-04-16T11:16:00;7;7;
76421;PMS5003;65254;52.354;13.614;2023-04-16T11:20:00;7;7;
76421;PMS5003;65254;52.354;13.614;2023-04-16T11:28:00;5;5;
76421;PMS5003;65254;52.354;13.614;2023-04-16T11:32:00;9;8;
76421;PMS5003;65254;52.354;13.614;2023-04-16T11:36:00;11;10;
76421;PMS5003;65254;52.354;13.614;2023-04-16T11:40:01;11;10;
76421;PMS5003;65254;52.354;13.614;2023-04-16T11:44:18;11;10;
76421;PMS5003;65254;52.354;13.614;2023-04-16T11:48:00;12;11;
76421;PMS5003;65254;52.354;13.614;2023-04-16T11:52:00;11;10;
76421;PMS5003;65254;52.354;13.614;2023-04-16T11:56:00;11;10;
76421;PMS5003;65254;52.354;13.614;2023-04-16T12:00:04;11;10;
76421;PMS5003;65254;52.354;13.614;2023-04-16T12:04:01;10;9;
76421;PMS5003;65254;52.354;13.614;2023-04-16T12:08:02;10;9;
76421;PMS5003;65254;52.354;13.614;2023-04-16T12:12:00;11;10;
76421;PMS5003;65254;52.354;13.614;2023-04-16T12:16:00;11;10;
76421;PMS5003;65254;52.354;13.614;2023-04-16T12:20:02;11;10;
76421;PMS5003;65254;52.354;13.614;2023-04-16T12:24:00;11;10;
76421;PMS5003;65254;52.354;13.614;2023-04-16T12:28:00;10;9;
76421;PMS5003;65254;52.354;13.614;2023-04-16T12:32:00;12;11;
76421;PMS5003;65254;52.354;13.614;2023-04-16T12:36:18;12;11;
76421;PMS5003;65254;52.354;13.614;2023-04-16T12:40:00;11;10;
76421;PMS5003;65254;52.354;13.614;2023-04-16T12:44:03;10;9;
76421;PMS5003;65254;52.354;13.614;2023-04-16T12:48:01;10;9;
76421;PMS5003;65254;52.354;13.614;2023-04-16T12:52:01;10;9;
76421;PMS5003;65254;52.354;13.614;2023-04-16T12:56:01;10;9;
76421;PMS5003;65254;52.354;13.614;2023-04-16T13:00:00;11;10;
76421;PMS5003;65254;52.354;13.614;2023-04-16T13:04:01;12;11;
76421;PMS5003;65254;52.354;13.614;2023-04-16T13:08:00;10;9;
76421;PMS5003;65254;52.354;13.614;2023-04-16T13:12:00;11;10;
76421;PMS5003;65254;52.354;13.614;2023-04-16T13:16:00;11;10;
76421;PMS5003;65254;52.354;13.614;2023-04-16T13:20:00;12;11;
76421;PMS5003;65254;52.354;13.614;2023-04-16T13:24:00;14;13;
76421;PMS5003;65254;52.354;13.614;2023-04-16T13:28:00;14;13;
76421;PMS5003;65254;52.354;13.614;2023-04-16T13:32:01;15;14;
76421;PMS5003;65254;52.354;13.614;2023-04-16T13:36:00;15;14;
76421;PMS5003;65254;52.354;13.614;2023-04-16T13:40:00;17;15;
76421;PMS5003;65254;52.354;13.614;2023-04-16T13:44:00;14;13;
76421;PMS5003;65254;52.354;13.614;2023-04-16T13:48:01;13;12;
76421;PMS5003;65254;52.354;13.614;2023-04-16T13:52:00;17;15;
76421;PMS5003;65254;52.354;13.614;2023-04-16T13:56:00;14;13;
76421;PMS5003;65254;52.354;13.614;2023-04-16T14:00:01;12;11;
76421;PMS5003;65254;52.354;13.614;2023-04-16T14:04:01;12;11;
76421;PMS5003;65254;52.354;13.614;2023-04-16T14:08:00;14;13;
76421;PMS5003;65254;52.354;13.614;2023-04-16T14:12:00;13;12;
76421;PMS5003;65254;52.354;13.614;2023-04-16T14:16:01;12;11;
76421;PMS5003;65254;52.354;13.614;2023-04-16T14:20:00;12;11;
76421;PMS5003;65254;52.354;13.614;2023-04-16T14:24:01;12;11;
76421;PMS5003;65254;52.354;13.614;2023-04-16T14:28:00;11;10;
76421;PMS5003;65254;52.354;13.614;2023-04-16T14:32:01;12;11;
76421;PMS5003;65254;52.354;13.614;2023-04-16T14:36:03;11;10;
76421;PMS5003;65254;52.354;13.614;2023-04-16T14:40:00;11;10;
76421;PMS5003;65254;52.354;13.614;2023-04-16T14:44:00;12;11;
76421;PMS5003;65254;52.354;13.614;2023-04-16T14:48:00;12;11;
76421;PMS5003;65254;52.354;13.614;2023-04-16T14:52:00;12;11;
76421;PMS5003;65254;52.354;13.614;2023-04-16T14:56:00;12;11;
76421;PMS5003;65254;52.354;13.614;2023-04-16T15:00:01;12;11;
76421;PMS5003;65254;52.354;13.614;2023-04-16T15:04:02;13;12;
76421;PMS5003;65254;52.354;13.614;2023-04-16T15:08:01;13;12;
76421;PMS5003;65254;52.354;13.614;2023-04-16T15:12:00;13;12;
76421;PMS5003;65254;52.354;13.614;2023-04-16T15:16:01;13;12;
76421;PMS5003;65254;52.354;13.614;2023-04-16T15:20:00;12;11;
76421;PMS5003;65254;52.354;13.614;2023-04-16T15:24:01;13;12;
76421;PMS5003;65254;52.354;13.614;2023-04-16T15:28:00;13;12;
76421;PMS5003;65254;52.354;13.614;2023-04-16T15:32:00;13;12;
76421;PMS5003;65254;52.354;13.614;2023-04-16T15:36:00;12;11;
76421;PMS5003;65254;52.354;13.614;2023-04-16T15:40:01;11;10;
76421;PMS5003;65254;52.354;13.614;2023-04-16T15:44:00;12;11;
76421;PMS5003;65254;52.354;13.614;2023-04-16T15:48:00;13;12;
76421;PMS5003;65254;52.354;13.614;2023-04-16T15:52:00;13;12;
76421;PMS5003;65254;52.354;13.614;2023-04-16T15:56:00;12;11;
76421;PMS5003;65254;52.354;13.614;2023-04-16T16:00:08;12;11;
76421;PMS5003;65254;52.354;13.614;2023-04-16T16:04:01;12;11;
76421;PMS5003;65254;52.354;13.614;2023-04-16T16:08:00;13;12;
76421;PMS5003;65254;52.354;13.614;2023-04-16T16:12:00;12;11;
76421;PMS5003;65254;52.354;13.614;2023-04-16T16:16:00;13;12;
76421;PMS5003;65254;52.354;13.614;2023-04-16T16:20:00;12;11;
76421;PMS5003;65254;52.354;13.614;2023-04-16T16:24:00;12;11;
76421;PMS5003;65254;52.354;13.614;2023-04-16T16:28:00;12;11;
76421;PMS5003;65254;52.354;13.614;2023-04-16T16:32:01;11;10;
76421;PMS5003;65254;52.354;13.614;2023-04-16T16:36:01;11;10;
76421;PMS5003;65254;52.354;13.614;2023-04-16T16:40:01;11;10;
76421;PMS5003;65254;52.354;13.614;2023-04-16T16:44:00;10;9;
76421;PMS5003;65254;52.354;13.614;2023-04-16T16:48:00;11;10;
76421;PMS5003;65254;52.354;13.614;2023-04-16T16:52:00;11;10;
76421;PMS5003;65254;52.354;13.614;2023-04-16T16:56:01;10;9;
76421;PMS5003;65254;52.354;13.614;2023-04-16T17:00:00;9;8;
76421;PMS5003;65254;52.354;13.614;2023-04-16T17:04:01;9;8;
76421;PMS5003;65254;52.354;13.614;2023-04-16T17:08:00;7;7;
76421;PMS5003;65254;52.354;13.614;2023-04-16T17:12:00;9;8;
76421;PMS5003;65254;52.354;13.614;2023-04-16T17:16:00;9;8;
76421;PMS5003;65254;52.354;13.614;2023-04-16T17:20:00;11;10;
76421;PMS5003;65254;52.354;13.614;2023-04-16T17:24:00;11;10;
76421;PMS5003;65254;52.354;13.614;2023-04-16T17:28:01;10;9;
76421;PMS5003;65254;52.354;13.614;2023-04-16T17:32:00;10;9;
76421;PMS5003;65254;52.354;13.614;2023-04-16T17:36:00;10;9;
76421;PMS5003;65254;52.354;13.614;2023-04-16T17:40:00;10;9;
76421;PMS5003;65254;52.354;13.614;2023-04-16T17:44:00;10;9;
76421;PMS5003;65254;52.354;13.614;2023-04-16T17:48:00;11;10;
76421;PMS5003;65254;52.354;13.614;2023-04-16T17:52:00;14;13;
76421;PMS5003;65254;52.354;13.614;2023-04-16T17:56:01;11;10;
76421;PMS5003;65254;52.354;13.614;2023-04-16T18:00:00;13;12;
76421;PMS5003;65254;52.354;13.614;2023-04-16T18:04:01;12;11;
76421;PMS5003;65254;52.354;13.614;2023-04-16T18:08:00;11;10;
76421;PMS5003;65254;52.354;13.614;2023-04-16T18:12:00;12;11;
76421;PMS5003;65254;52.354;13.614;2023-04-16T18:16:00;10;9;
76421;PMS5003;65254;52.354;13.614;2023-04-16T18:20:00;12;11;
76421;PMS5003;65254;52.354;13.614;2023-04-16T18:24:00;12;11;
76421;PMS5003;65254;52.354;13.614;2023-04-16T18:28:00;12;11;
76421;PMS5003;65254;52.354;13.614;2023-04-16T18:32:05;12;11;
76421;PMS5003;65254;52.354;13.614;2023-04-16T18:36:00;13;12;
76421;PMS5003;65254;52.354;13.614;2023-04-16T18:40:00;12;11;
76421;PMS5003;65254;52.354;13.614;2023-04-16T18:44:00;13;12;
76421;PMS5003;65254;52.354;13.614;2023-04-16T18:48:00;13;12;
76421;PMS5003;65254;52.354;13.614;2023-04-16T18:52:00;12;11;
76421;PMS5003;65254;52.354;13.614;2023-04-16T18:56:00;13;12;
76421;PMS5003;65254;52.354;13.614;2023-04-16T19:00:00;12;11;
76421;PMS5003;65254;52.354;13.614;2023-04-16T19:04:00;12;11;
76421;PMS5003;65254;52.354;13.614;2023-04-16T19:08:00;13;12;
76421;PMS5003;65254;52.354;13.614;2023-04-16T19:12:00;12;11;
76421;PMS5003;65254;52.354;13.614;2023-04-16T19:16:00;12;11;
76421;PMS5003;65254;52.354;13.614;2023-04-16T19:20:00;11;10;
76421;PMS5003;65254;52.354;13.614;2023-04-16T19:24:00;11;10;
76421;PMS5003;65254;52.354;13.614;2023-04-16T19:28:00;11;10;
76421;PMS5003;65254;52.354;13.614;2023-04-16T19:32:01;11;10;
76421;PMS5003;65254;52.354;13.614;2023-04-16T19:36:01;11;10;
76421;PMS5003;65254;52.354;13.614;2023-04-16T19:40:00;11;10;
76421;PMS5003;65254;52.354;13.614;2023-04-16T19:44:00;11;10;
76421;PMS5003;65254;52.354;13.614;2023-04-16T19:48:00;12;11;
76421;PMS5003;65254;52.354;13.614;2023-04-16T19:52:00;12;11;
76421;PMS5003;65254;52.354;13.614;2023-04-16T19:56:00;12;11;
76421;PMS5003;65254;52.354;13.614;2023-04-16T20:00:00;14;13;
76421;PMS5003;65254;52.354;13.614;2023-04-16T20:04:00;13;12;
76421;PMS5003;65254;52.354;13.614;2023-04-16T20:08:00;13;12;
76421;PMS5003;65254;52.354;13.614;2023-04-16T20:12:00;13;12;
76421;PMS5003;65254;52.354;13.614;2023-04-16T20:16:00;14;13;
76421;PMS5003;65254;52.354;13.614;2023-04-16T20:20:00;14;13;
76421;PMS5003;65254;52.354;13.614;2023-04-16T20:24:00;14;13;
76421;PMS5003;65254;52.354;13.614;2023-04-16T20:28:00;16;14;
76421;PMS5003;65254;52.354;13.614;2023-04-16T20:32:00;15;14;
76421;PMS5003;65254;52.354;13.614;2023-04-16T20:36:00;17;15;
76421;PMS5003;65254;52.354;13.614;2023-04-16T20:40:00;15;14;
76421;PMS5003;65254;52.354;13.614;2023-04-16T20:44:00;15;14;
76421;PMS5003;65254;52.354;13.614;2023-04-16T20:48:00;17;15;
76421;PMS5003;65254;52.354;13.614;2023-04-16T20:52:00;14;13;
76421;PMS5003;65254;52.354;13.614;2023-04-16T20:56:01;15;14;
76421;PMS5003;65254;52.354;13.614;2023-04-16T21:00:00;14;13;
76421;PMS5003;65254;52.354;13.614;2023-04-16T21:04:01;14;13;
76421;PMS5003;65254;52.354;13.614;2023-04-16T21:08:00;14;13;
76421;PMS5003;65254;52.354;13.614;2023-04-16T21:12:01;15;14;
76421;PMS5003;65254;52.354;13.614;2023-04-16T21:16:00;14;13;
76421;PMS5003;65254;52.354;13.614;2023-04-16T21:20:00;14;13;
76421;PMS5003;65254;52.354;13.614;2023-04-16T21:24:00;15;14;
76421;PMS5003;65254;52.354;13.614;2023-04-16T21:28:00;14;13;
76421;PMS5003;65254;52.354;13.614;2023-04-16T21:32:00;14;13;
76421;PMS5003;65254;52.354;13.614;2023-04-16T21:36:00;13;12;
76421;PMS5003;65254;52.354;13.614;2023-04-16T21:40:01;13;12;
76421;PMS5003;65254;52.354;13.614;2023-04-16T21:44:00;14;13;
76421;PMS5003;65254;52.354;13.614;2023-04-16T21:48:00;14;13;
76421;PMS5003;65254;52.354;13.614;2023-04-16T21:52:00;14;13;
76421;PMS5003;65254;52.354;13.614;2023-04-16T21:56:01;13;12;
76421;PMS5003;65254;52.354;13.614;2023-04-16T22:00:00;13;12;
76421;PMS5003;65254;52.354;13.614;2023-04-16T22:04:00;13;12;
76421;PMS5003;65254;52.354;13.614;2023-04-16T22:08:10;13;12;
76421;PMS5003;65254;52.354;13.614;2023-04-16T22:12:00;14;13;
76421;PMS5003;65254;52.354;13.614;2023-04-16T22:16:01;14;13;
76421;PMS5003;65254;52.354;13.614;2023-04-16T22:20:00;14;13;
76421;PMS5003;65254;52.354;13.614;2023-04-16T22:24:00;14;13;
76421;PMS5003;65254;52.354;13.614;2023-04-16T22:28:00;15;14;
76421;PMS5003;65254;52.354;13.614;2023-04-16T22:32:01;13;12;
76421;PMS5003;65254;52.354;13.614;2023-04-16T22:36:00;15;14;
76421;PMS5003;65254;52.354;13.614;2023-04-16T22:40:01;15;14;
76421;PMS5003;65254;52.354;13.614;2023-04-16T22:44:00;14;13;
76421;PMS5003;65254;52.354;13.614;2023-04-16T22:48:00;14;13;
76421;PMS5003;65254;52.354;13.614;2023-04-16T22:52:00;17;15;
76421;PMS5003;65254;52.354;13.614;2023-04-16T22:56:00;15;14;
76421;PMS5003;65254;52.354;13.614;2023-04-16T23:00:00;14;13;
76421;PMS5003;65254;52.354;13.614;2023-04-16T23:04:00;17;15;
76421;PMS5003;65254;52.354;13.614;2023-04-16T23:08:00;15;14;
76421;PMS5003;65254;52.354;13.614;2023-04-16T23:12:00;14;13;
76421;PMS5003;65254;52.354;13.614;2023-04-16T23:16:00;15;14;
76421;PMS5003;65254;52.354;13.614;2023-04-16T23:20:01;18;16;
76421;PMS5003;65254;52.354;13.614;2023-04-16T23:24:00;15;14;
76421;PMS5003;65254;52.354;13.614;2023-04-16T23:28:00;14;13;
76421;PMS5003;65254;52.354;13.614;2023-04-16T23:32:00;15;14;
76421;PMS5003;65254;52.354;13.614;2023-04-16T23:36:00;15;14;
76421;PMS5003;65254;52.354;13.614;2023-04-16T23:40:00;14;13;
76421;PMS5003;65254;52.354;13.614;2023-04-16T23:44:00;15;14;
76421;PMS5003;65254;52.354;13.614;2023-04-16T23:48:01;14;13;
76421;PMS5003;65254;52.354;13.614;2023-04-16T23:52:00;14;13;
76421;PMS5003;65254;52.354;13.614;2023-04-16T23:56:00;13;12;
